Time;durP1;ratioP1;P1;durP2;ratioP2;P2;SDS_P1;SDS_P2;PMS_P1;PMS_P2;Temp;Humidity;BMP_temperature;BMP_pressure;BME280_temperature;BME280_humidity;BME280_pressure;Samples;Min_cycle;Max_cycle;Signal;HPM_P1;HPM_P2
2021/05/11 00:01:56;;;;;;;0.90;0.73;;;22.30;54.20;;;;;;5114040;28;20626;-42
2021/05/11 00:04:22;;;;;;;0.82;0.60;;;22.30;54.40;;;;;;5104867;28;20116;-41
2021/05/11 00:06:48;;;;;;;0.70;0.50;;;22.30;54.30;;;;;;5107254;28;20028;-41
2021/05/11 00:09:13;;;;;;;0.52;0.52;;;22.40;54.10;;;;;;5110540;28;20455;-44
2021/05/11 00:11:39;;;;;;;0.70;0.60;;;22.40;54.00;;;;;;5112036;28;20020;-43
2021/05/11 00:14:06;;;;;;;0.40;0.40;;;22.30;54.20;;;;;;5113679;28;20573;-42
2021/05/11 00:16:33;;;;;;;0.85;0.68;;;22.40;54.10;;;;;;5111544;28;20031;-43
2021/05/11 00:19:00;;;;;;;1.90;0.60;;;22.40;54.00;;;;;;5093883;28;20055;-41
2021/05/11 00:21:26;;;;;;;1.20;0.60;;;22.30;54.10;;;;;;5110113;28;20027;-42
2021/05/11 00:23:51;;;;;;;2.13;0.50;;;22.40;54.80;;;;;;5107806;28;20623;-45
2021/05/11 00:26:17;;;;;;;0.55;0.55;;;22.40;54.10;;;;;;5110977;28;20444;-42
2021/05/11 00:28:42;;;;;;;0.93;0.60;;;22.40;54.10;;;;;;5110894;28;20102;-42
2021/05/11 00:31:08;;;;;;;0.80;0.60;;;22.40;54.10;;;;;;5104802;28;20031;-43
2021/05/11 00:33:34;;;;;;;1.08;0.75;;;22.30;54.00;;;;;;5102542;28;20076;-40
2021/05/11 00:35:59;;;;;;;1.20;1.02;;;22.30;54.20;;;;;;5107847;28;20446;-40
2021/05/11 00:38:25;;;;;;;0.82;0.60;;;22.30;54.00;;;;;;5092441;28;20055;-40
2021/05/11 00:40:50;;;;;;;0.70;0.63;;;22.30;54.20;;;;;;5087833;28;20032;-43
2021/05/11 00:43:16;;;;;;;0.70;0.68;;;22.20;54.10;;;;;;5088984;28;20135;-45
2021/05/11 00:45:41;;;;;;;0.75;0.55;;;22.20;54.30;;;;;;5090188;28;20378;-45
2021/05/11 00:48:07;;;;;;;0.82;0.50;;;22.20;54.30;;;;;;5082807;28;20028;-45
2021/05/11 00:50:32;;;;;;;0.70;0.60;;;22.30;54.20;;;;;;5085037;28;20029;-44
2021/05/11 00:52:58;;;;;;;0.73;0.65;;;22.20;54.30;;;;;;5081997;28;20550;-44
2021/05/11 00:55:24;;;;;;;0.70;0.50;;;22.20;54.10;;;;;;5066227;28;20059;-43
2021/05/11 00:57:49;;;;;;;1.10;0.60;;;22.20;54.20;;;;;;5083746;28;20024;-46
2021/05/11 01:00:15;;;;;;;0.75;0.75;;;22.30;54.10;;;;;;5064284;28;20028;-45
2021/05/11 01:02:41;;;;;;;1.02;0.50;;;22.20;54.20;;;;;;5079909;28;20027;-43
2021/05/11 01:05:07;;;;;;;0.73;0.50;;;22.20;54.20;;;;;;5085954;28;20089;-48
2021/05/11 01:07:33;;;;;;;0.68;0.60;;;22.20;54.30;;;;;;5085407;28;20032;-41
2021/05/11 01:09:59;;;;;;;1.25;0.63;;;22.20;54.30;;;;;;5080719;28;20629;-44
2021/05/11 01:12:24;;;;;;;0.75;0.55;;;22.10;54.20;;;;;;5079235;28;20028;-36
2021/05/11 01:14:51;;;;;;;1.45;0.65;;;22.30;54.20;;;;;;5083496;28;20069;-42
2021/05/11 01:17:22;;;;;;;0.60;0.60;;;22.20;54.10;;;;;;5083383;28;20033;-41
2021/05/11 01:19:51;;;;;;;0.82;0.60;;;22.20;54.20;;;;;;5083975;28;20026;-42
2021/05/11 01:23:08;;;;;;;0.60;0.60;;;22.20;54.30;;;;;;5081443;28;20571;-42
2021/05/11 01:25:20;;;;;;;0.80;0.60;;;22.20;54.30;;;;;;5076300;28;20048;-43
2021/05/11 01:28:07;;;;;;;0.82;0.82;;;22.20;54.30;;;;;;5083771;28;20024;-43
2021/05/11 01:44:58;;;;;;;;;;;22.10;54.20;;;;;;5108774;28;20084;-42
2021/05/11 01:47:28;;;;;;;0.85;0.40;;;22.10;54.40;;;;;;5093570;28;20386;-35
2021/05/11 01:50:09;;;;;;;1.23;0.55;;;22.10;54.30;;;;;;5102750;28;20115;-43
2021/05/11 02:25:01;;;;;;;0.50;0.50;;;22.00;54.30;;;;;;5084766;28;20044;-39
2021/05/11 02:27:26;;;;;;;1.15;0.47;;;22.00;54.30;;;;;;5089098;28;20062;-43
2021/05/11 02:29:52;;;;;;;0.47;0.40;;;22.00;54.30;;;;;;5088142;28;20747;-41
2021/05/11 02:32:18;;;;;;;0.50;0.40;;;21.90;54.40;;;;;;5085036;28;20062;-41
2021/05/11 02:34:44;;;;;;;0.50;0.43;;;22.00;54.20;;;;;;5093345;28;20542;-40
2021/05/11 02:37:10;;;;;;;0.35;0.35;;;22.00;54.30;;;;;;5090817;28;20520;-42
2021/05/11 02:39:37;;;;;;;0.50;0.40;;;22.00;54.30;;;;;;5106923;28;20698;-43
2021/05/11 02:42:03;;;;;;;0.60;0.52;;;22.00;54.40;;;;;;5090504;28;20498;-41
2021/05/11 02:44:36;;;;;;;1.02;0.45;;;21.90;54.40;;;;;;5110300;28;20478;-42
2021/05/11 02:47:01;;;;;;;0.57;0.50;;;22.00;54.40;;;;;;5095406;28;20485;-41
2021/05/11 02:49:27;;;;;;;0.52;0.45;;;22.00;54.90;;;;;;5107618;28;20039;-44
2021/05/11 02:51:53;;;;;;;0.65;0.40;;;22.00;54.10;;;;;;5107809;28;20414;-43
2021/05/11 02:54:18;;;;;;;0.47;0.47;;;22.00;54.90;;;;;;5108026;28;20027;-42
2021/05/11 02:56:44;;;;;;;0.68;0.47;;;21.90;54.30;;;;;;5105884;28;20031;-42
2021/05/11 02:59:10;;;;;;;1.00;0.50;;;21.90;55.10;;;;;;5106664;28;20016;-42
2021/05/11 03:01:35;;;;;;;0.50;0.35;;;21.90;54.40;;;;;;5107504;28;20058;-42
2021/05/11 03:04:01;;;;;;;0.50;0.38;;;21.90;54.40;;;;;;5107534;28;20107;-43
2021/05/11 03:06:26;;;;;;;0.45;0.45;;;21.90;54.40;;;;;;5108167;28;20027;-45
2021/05/11 03:08:52;;;;;;;0.52;0.40;;;21.90;54.40;;;;;;5105711;28;20028;-40
2021/05/11 03:11:17;;;;;;;0.52;0.45;;;22.00;54.40;;;;;;5114164;28;20118;-41
2021/05/11 03:13:43;;;;;;;0.50;0.40;;;21.90;54.30;;;;;;5112651;28;20031;-41
2021/05/11 03:16:09;;;;;;;0.70;0.40;;;21.90;54.40;;;;;;5111686;28;20024;-40
2021/05/11 03:18:34;;;;;;;0.85;0.40;;;21.90;54.40;;;;;;5111023;28;20393;-42
2021/05/11 03:21:00;;;;;;;0.40;0.40;;;21.90;54.40;;;;;;5093477;28;20020;-39
2021/05/11 03:23:25;;;;;;;0.60;0.60;;;21.90;54.50;;;;;;5113468;28;20030;-40
2021/05/11 03:25:51;;;;;;;0.68;0.43;;;21.90;54.50;;;;;;5113442;28;20608;-40
2021/05/11 03:28:16;;;;;;;1.02;0.40;;;21.90;54.40;;;;;;5109471;28;20023;-45
2021/05/11 03:30:43;;;;;;;0.65;0.60;;;21.90;54.30;;;;;;5111411;28;20126;-40
2021/05/11 03:33:11;;;;;;;0.60;0.30;;;21.90;54.40;;;;;;5111436;28;20081;-42
2021/05/11 03:35:37;;;;;;;0.45;0.45;;;21.90;54.40;;;;;;5095371;28;20164;-41
2021/05/11 03:38:04;;;;;;;0.45;0.45;;;21.90;54.30;;;;;;5114517;28;20130;-41
2021/05/11 03:40:29;;;;;;;1.48;0.45;;;21.90;55.10;;;;;;5111910;28;20035;-42
2021/05/11 03:43:02;;;;;;;0.50;0.43;;;21.90;54.30;;;;;;5111622;28;20027;-40
2021/05/11 03:45:36;;;;;;;2.72;0.50;;;21.90;54.20;;;;;;5110839;28;20096;-41
2021/05/11 03:48:01;;;;;;;0.55;0.50;;;21.80;54.30;;;;;;5111076;28;20095;-39
2021/05/11 03:50:27;;;;;;;0.82;0.40;;;21.90;54.20;;;;;;5112602;28;20040;-41
2021/05/11 03:52:52;;;;;;;0.80;0.60;;;21.80;54.30;;;;;;5112914;28;20019;-43
2021/05/11 03:55:18;;;;;;;0.45;0.40;;;21.80;54.40;;;;;;5106090;28;20032;-44
2021/05/11 03:57:44;;;;;;;0.40;0.40;;;21.80;54.30;;;;;;5108637;28;20023;-42
2021/05/11 04:00:10;;;;;;;0.75;0.52;;;21.90;55.00;;;;;;5110117;28;20031;-43
2021/05/11 04:02:36;;;;;;;2.20;0.65;;;21.90;54.20;;;;;;5110129;28;20138;-40
2021/05/11 04:05:07;;;;;;;1.67;0.43;;;21.90;54.10;;;;;;5114332;28;20027;-41
2021/05/11 04:07:33;;;;;;;1.42;0.50;;;21.90;54.30;;;;;;5105024;28;20590;-41
2021/05/11 04:10:01;;;;;;;0.63;0.40;;;22.00;54.70;;;;;;5085210;28;20035;-45
2021/05/11 04:17:42;;;;;;;0.95;0.50;;;21.80;54.80;;;;;;5090615;28;20028;-45
2021/05/11 04:20:08;;;;;;;0.60;0.40;;;21.90;54.70;;;;;;5093920;28;20040;-45
2021/05/11 04:22:34;;;;;;;0.90;0.47;;;21.80;54.90;;;;;;5081294;28;20020;-45
2021/05/11 04:25:00;;;;;;;1.73;0.50;;;21.90;57.00;;;;;;5096526;28;20077;-45
2021/05/11 04:27:25;;;;;;;1.33;0.75;;;21.90;56.60;;;;;;5095929;28;20031;-45
2021/05/11 04:29:54;;;;;;;1.02;0.45;;;21.90;56.40;;;;;;5097172;28;20089;-45
2021/05/11 04:32:20;;;;;;;0.73;0.60;;;21.90;56.70;;;;;;5100143;28;20106;-44
2021/05/11 04:34:45;;;;;;;0.70;0.52;;;22.00;56.40;;;;;;5079316;28;20474;-44
2021/05/11 04:37:11;;;;;;;0.93;0.52;;;22.20;56.30;;;;;;5097093;28;20019;-44
2021/05/11 04:39:37;;;;;;;1.52;0.50;;;22.20;55.30;;;;;;5097695;28;20040;-47
2021/05/11 04:42:02;;;;;;;0.98;0.57;;;22.10;55.90;;;;;;5096199;28;20023;-44
2021/05/11 04:44:31;;;;;;;3.53;0.68;;;22.00;56.00;;;;;;5097127;28;20040;-44
2021/05/11 04:47:06;;;;;;;1.27;0.70;;;21.90;57.80;;;;;;5099748;28;20024;-44
2021/05/11 04:49:32;;;;;;;0.85;0.70;;;21.90;57.30;;;;;;5100482;28;20051;-45
2021/05/11 04:51:58;;;;;;;0.90;0.68;;;21.80;57.80;;;;;;5077974;28;20024;-45
2021/05/11 04:54:24;;;;;;;1.05;0.50;;;21.80;58.10;;;;;;5078498;28;20024;-45
2021/05/11 04:56:50;;;;;;;1.30;0.40;;;21.80;57.80;;;;;;5098660;28;20838;-44
2021/05/11 04:59:15;;;;;;;0.70;0.70;;;22.10;57.80;;;;;;5079528;28;20036;-44
2021/05/11 05:01:46;;;;;;;0.75;0.52;;;22.20;56.00;;;;;;5086501;28;20560;-45
2021/05/11 05:04:13;;;;;;;0.40;0.40;;;22.10;56.00;;;;;;5100226;28;20028;-45
2021/05/11 05:06:38;;;;;;;0.70;0.60;;;22.20;56.20;;;;;;5081511;28;20069;-44
2021/05/11 05:09:05;;;;;;;2.08;0.47;;;22.30;56.30;;;;;;5094781;28;20439;-44
2021/05/11 05:11:30;;;;;;;2.55;0.50;;;22.40;56.10;;;;;;5095266;28;20036;-44
2021/05/11 05:13:56;;;;;;;2.45;0.50;;;22.40;55.70;;;;;;5084276;28;20375;-44
2021/05/11 05:16:21;;;;;;;2.88;0.77;;;22.30;56.20;;;;;;5095712;28;20055;-44
2021/05/11 05:18:47;;;;;;;1.15;0.60;;;22.30;56.40;;;;;;5079691;28;20034;-44
2021/05/11 05:21:13;;;;;;;0.57;0.57;;;22.40;55.80;;;;;;5106423;28;20604;-44
2021/05/11 05:23:41;;;;;;;1.55;0.63;;;22.40;55.90;;;;;;5108637;28;20028;-43
2021/05/11 05:26:10;;;;;;;1.70;0.60;;;22.20;56.20;;;;;;5110126;28;20033;-44
2021/05/11 05:28:40;;;;;;;1.00;0.60;;;22.20;56.50;;;;;;4725175;28;10000574;-44
2021/05/11 05:31:06;;;;;;;1.42;0.80;;;22.30;56.00;;;;;;5094509;28;20101;-46
2021/05/11 05:33:33;;;;;;;1.25;0.80;;;22.30;55.90;;;;;;5100816;28;20122;-45
2021/05/11 05:35:59;;;;;;;1.40;0.60;;;22.30;56.70;;;;;;5091105;28;20024;-45
2021/05/11 05:38:26;;;;;;;2.33;0.88;;;22.20;56.70;;;;;;5083222;28;20083;-44
2021/05/11 05:40:58;;;;;;;1.65;0.80;;;22.10;56.20;;;;;;5106250;28;20094;-45
2021/05/11 05:43:24;;;;;;;1.95;0.85;;;22.10;56.50;;;;;;5106067;28;20067;-45
2021/05/11 05:45:52;;;;;;;7.43;0.80;;;22.10;56.40;;;;;;5105244;28;20055;-43
2021/05/11 05:48:18;;;;;;;2.17;0.63;;;22.20;56.30;;;;;;5106394;28;20107;-44
2021/05/11 05:50:43;;;;;;;1.75;0.65;;;22.10;56.30;;;;;;5105649;28;20593;-45
2021/05/11 05:53:13;;;;;;;1.23;1.00;;;22.00;56.50;;;;;;5109546;28;20115;-44
2021/05/11 05:55:41;;;;;;;0.95;0.60;;;21.90;56.50;;;;;;5107311;28;20030;-42
2021/05/11 05:58:06;;;;;;;0.95;0.57;;;21.80;56.60;;;;;;5105949;28;20122;-42
2021/05/11 06:00:32;;;;;;;3.08;0.90;;;21.80;56.80;;;;;;5105985;28;20094;-45
2021/05/11 06:03:16;;;;;;;1.73;0.70;;;21.80;56.70;;;;;;5107390;28;20026;-45
2021/05/11 06:05:42;;;;;;;;;;;21.80;56.70;;;;;;5090309;28;20035;-46
2021/05/11 06:08:07;;;;;;;1.85;0.68;;;21.80;56.60;;;;;;5093152;28;20328;-44
2021/05/11 06:10:33;;;;;;;0.57;0.57;;;21.90;56.60;;;;;;5094298;28;20051;-39
2021/05/11 06:13:06;;;;;;;1.27;0.50;;;22.10;55.60;;;;;;5094127;28;20099;-42
2021/05/11 06:18:16;;;;;;;;;;;22.40;54.60;;;;;;5101312;28;20066;-45
2021/05/11 06:20:41;;;;;;;1.17;0.60;;;22.40;54.40;;;;;;5090150;28;20426;-43
2021/05/11 06:23:07;;;;;;;1.13;0.50;;;22.50;54.10;;;;;;5094339;28;20027;-45
2021/05/11 06:25:32;;;;;;;0.85;0.57;;;22.60;53.80;;;;;;5076679;28;20036;-50
2021/05/11 06:27:58;;;;;;;0.57;0.47;;;22.70;53.70;;;;;;5095274;28;20026;-41
2021/05/11 06:30:24;;;;;;;1.25;0.50;;;22.70;53.60;;;;;;5094490;28;20036;-41
2021/05/11 06:32:50;;;;;;;0.98;0.50;;;22.60;55.00;;;;;;5091327;28;20474;-41
2021/05/11 06:35:16;;;;;;;0.85;0.50;;;22.60;54.70;;;;;;5080651;28;20035;-41
2021/05/11 06:37:41;;;;;;;0.77;0.30;;;22.50;54.20;;;;;;5096035;28;20545;-42
2021/05/11 06:40:07;;;;;;;1.30;0.60;;;22.50;54.00;;;;;;5096061;28;20028;-44
2021/05/11 06:42:35;;;;;;;1.55;0.70;;;22.30;54.60;;;;;;5095980;28;20089;-41
2021/05/11 06:45:29;;;;;;;0.65;0.40;;;22.20;54.70;;;;;;5092136;28;20513;-42
2021/05/11 06:48:14;;;;;;;7.30;0.73;;;22.20;54.60;;;;;;5091903;28;20450;-40
2021/05/11 06:53:44;;;;;;;1.73;0.40;;;22.40;55.10;;;;;;5035624;28;20117;-43
2021/05/11 06:56:11;;;;;;;1.60;0.70;;;22.40;54.30;;;;;;5037352;28;20465;-42
2021/05/11 06:58:37;;;;;;;0.50;0.50;;;22.40;54.00;;;;;;5035539;28;20036;-45
2021/05/11 07:01:03;;;;;;;3.95;0.77;;;22.50;54.00;;;;;;5033606;28;20042;-44
2021/05/11 07:03:29;;;;;;;1.35;0.60;;;22.40;54.00;;;;;;5036802;28;20119;-44
2021/05/11 07:05:54;;;;;;;0.75;0.50;;;22.30;54.20;;;;;;5019116;28;20025;-46
2021/05/11 07:08:43;;;;;;;1.38;0.70;;;22.20;54.40;;;;;;5032450;28;20029;-44
2021/05/11 07:13:36;;;;;;;1.70;0.63;;;21.90;54.30;;;;;;5036420;28;20017;-43
2021/05/11 07:16:02;;;;;;;0.75;0.52;;;21.80;54.40;;;;;;5036514;28;20447;-44
2021/05/11 07:18:28;;;;;;;1.27;0.70;;;21.90;54.20;;;;;;5040838;28;20034;-43
2021/05/11 07:20:58;;;;;;;1.23;0.80;;;21.80;53.90;;;;;;5032510;28;20208;-42
2021/05/11 07:23:24;;;;;;;2.92;1.00;;;21.60;54.50;;;;;;5038251;28;20045;-41
2021/05/11 07:31:06;;;;;;;3.95;1.10;;;21.60;53.80;;;;;;5071495;28;20046;-42
2021/05/11 07:33:36;;;;;;;1.75;0.80;;;21.80;53.50;;;;;;5106265;28;20032;-43
2021/05/11 07:36:01;;;;;;;1.70;1.10;;;21.80;53.50;;;;;;5077150;28;20043;-45
2021/05/11 07:38:28;;;;;;;2.05;0.75;;;21.80;53.00;;;;;;5081296;28;20451;-46
2021/05/11 07:40:54;;;;;;;1.20;1.08;;;21.80;53.30;;;;;;5073570;28;20025;-43
2021/05/11 07:43:21;;;;;;;1.67;0.90;;;21.80;52.90;;;;;;5060732;28;20081;-46
2021/05/11 08:17:38;;;;;;;3.95;1.10;;;22.20;50.90;;;;;;5037345;28;20029;-43
2021/05/11 08:20:14;;;;;;;3.25;1.20;;;22.00;50.80;;;;;;5032263;28;20037;-42
2021/05/11 08:23:12;;;;;;;3.03;1.35;;;22.00;51.30;;;;;;5042854;28;20037;-44
2021/05/11 08:28:22;;;;;;;2.05;1.30;;;22.00;50.90;;;;;;5041091;28;20044;-44
2021/05/11 08:30:47;;;;;;;1.48;1.13;;;22.00;50.30;;;;;;5037500;28;20049;-43
2021/05/11 08:33:13;;;;;;;1.88;1.20;;;22.00;50.70;;;;;;5022220;28;20063;-42
2021/05/11 08:35:39;;;;;;;2.55;0.90;;;22.10;50.00;;;;;;5041383;28;20069;-45
2021/05/11 08:38:04;;;;;;;4.30;1.20;;;22.20;50.20;;;;;;5046942;28;20045;-45
2021/05/11 08:40:32;;;;;;;2.90;1.23;;;22.10;49.90;;;;;;5064861;28;20040;-42
2021/05/11 08:43:01;;;;;;;2.90;1.48;;;22.10;49.90;;;;;;5094340;28;20410;-43
2021/05/11 08:45:26;;;;;;;4.32;1.48;;;22.20;49.90;;;;;;5094055;28;20414;-44
2021/05/11 08:47:53;;;;;;;2.60;1.25;;;22.30;49.50;;;;;;5075531;28;20020;-44
2021/05/11 08:50:34;;;;;;;2.25;1.30;;;22.20;49.70;;;;;;5090398;28;20097;-45
2021/05/11 09:25:17;;;;;;;1.83;1.42;;;22.10;49.30;;;;;;5091833;28;20043;-44
2021/05/11 09:27:56;;;;;;;0.95;0.80;;;22.20;48.70;;;;;;5094920;28;20034;-46
2021/05/11 09:33:05;;;;;;;3.38;1.20;;;22.20;48.30;;;;;;5091679;28;20024;-44
2021/05/11 09:58:28;;;;;;;1.27;1.00;;;22.20;47.90;;;;;;5086842;28;20038;-46
2021/05/11 10:48:21;;;;;;;1.58;0.80;;;23.40;49.30;;;;;;5108489;28;20501;-46
2021/05/11 10:50:51;;;;;;;1.60;1.00;;;23.40;48.80;;;;;;5102287;28;20114;-44
2021/05/11 10:53:57;;;;;;;1.45;1.35;;;23.50;49.10;;;;;;5093726;28;20039;-44
2021/05/11 10:59:23;;;;;;;2.67;2.47;;;23.50;49.40;;;;;;5097945;28;20020;-45
2021/05/11 11:01:52;;;;;;;2.92;2.58;;;23.50;49.30;;;;;;5093212;28;20060;-45
2021/05/11 11:04:26;;;;;;;3.53;3.33;;;23.60;49.30;;;;;;5095073;28;20044;-45
2021/05/11 11:07:01;;;;;;;4.47;3.60;;;23.60;49.30;;;;;;5098233;28;20098;-46
2021/05/11 11:09:27;;;;;;;5.38;4.03;;;23.70;49.30;;;;;;5096319;28;20052;-44
2021/05/11 11:11:53;;;;;;;4.03;3.55;;;23.80;49.10;;;;;;5091105;28;20093;-45
2021/05/11 11:14:18;;;;;;;4.05;3.75;;;23.80;49.20;;;;;;5079046;28;20446;-45
2021/05/11 11:16:44;;;;;;;4.45;3.78;;;23.80;49.10;;;;;;5083063;28;20690;-44
2021/05/11 11:19:11;;;;;;;4.20;3.80;;;23.90;49.30;;;;;;5097620;28;20016;-44
2021/05/11 11:24:37;;;;;;;3.10;2.80;;;23.90;49.10;;;;;;5097292;28;20114;-44
2021/05/11 11:27:02;;;;;;;3.58;3.28;;;23.90;49.00;;;;;;5091471;28;20023;-47
2021/05/11 11:29:28;;;;;;;2.60;2.40;;;24.00;49.00;;;;;;5097454;28;21497;-43
2021/05/11 11:31:54;;;;;;;3.28;2.97;;;24.00;49.30;;;;;;5096902;28;20043;-44
2021/05/11 11:34:31;;;;;;;3.50;3.20;;;23.90;48.70;;;;;;5099696;28;20082;-42
2021/05/11 11:37:02;;;;;;;3.30;2.90;;;23.80;48.90;;;;;;5099849;28;20031;-43
2021/05/11 11:39:28;;;;;;;2.92;2.72;;;23.70;49.70;;;;;;5100385;28;20521;-44
2021/05/11 11:41:55;;;;;;;3.45;2.60;;;23.80;49.10;;;;;;5094511;28;20034;-44
2021/05/11 11:44:22;;;;;;;3.10;2.80;;;23.70;49.20;;;;;;5095511;28;20697;-44
2021/05/11 11:46:57;;;;;;;3.25;2.95;;;23.70;49.00;;;;;;5098416;28;20028;-45
2021/05/11 11:49:25;;;;;;;3.03;2.50;;;23.60;49.30;;;;;;5090357;28;20114;-43
2021/05/11 11:52:06;;;;;;;2.38;2.17;;;23.70;49.00;;;;;;5077999;28;20031;-46
2021/05/11 11:59:33;;;;;;;2.30;2.10;;;23.70;49.10;;;;;;5092513;28;20020;-44
2021/05/11 12:02:00;;;;;;;3.35;2.08;;;23.70;49.50;;;;;;5093115;28;20020;-44
2021/05/11 12:04:26;;;;;;;2.35;2.15;;;23.70;49.00;;;;;;5093936;28;20047;-40
2021/05/11 12:06:52;;;;;;;2.65;2.00;;;23.70;49.00;;;;;;5094470;28;20024;-47
2021/05/11 12:09:21;;;;;;;2.20;2.10;;;23.80;49.00;;;;;;5093402;28;20039;-46
2021/05/11 12:11:47;;;;;;;5.05;2.10;;;23.70;49.10;;;;;;5083161;28;20076;-44
2021/05/11 12:14:15;;;;;;;2.10;2.00;;;23.80;49.10;;;;;;5092233;28;20024;-45
2021/05/11 12:16:41;;;;;;;2.10;2.00;;;23.70;49.20;;;;;;5096389;28;20103;-45
2021/05/11 12:19:18;;;;;;;2.33;1.92;;;23.80;49.20;;;;;;5094150;28;20103;-44
2021/05/11 12:21:54;;;;;;;1.95;1.85;;;23.90;49.10;;;;;;5097918;28;20401;-44
2021/05/11 12:24:23;;;;;;;2.55;2.35;;;23.90;49.00;;;;;;5092660;28;20113;-45
2021/05/11 12:26:49;;;;;;;2.08;1.90;;;24.00;49.00;;;;;;5100103;28;20027;-44
2021/05/11 12:29:15;;;;;;;1.95;1.85;;;23.90;49.10;;;;;;5091205;28;20031;-46
2021/05/11 12:31:48;;;;;;;1.73;1.63;;;23.90;49.00;;;;;;5091199;28;20667;-43
2021/05/11 12:34:15;;;;;;;2.20;2.00;;;23.90;49.10;;;;;;5096932;28;20023;-46
2021/05/11 12:36:48;;;;;;;2.03;1.65;;;23.80;49.30;;;;;;5098687;28;20081;-45
2021/05/11 12:42:12;;;;;;;1.70;1.60;;;23.90;49.30;;;;;;5089258;28;20024;-46
2021/05/11 12:44:38;;;;;;;1.88;1.77;;;23.90;49.10;;;;;;5089403;28;20397;-46
2021/05/11 12:47:05;;;;;;;1.65;1.55;;;23.90;49.10;;;;;;5091880;28;20039;-44
2021/05/11 12:49:31;;;;;;;1.70;1.60;;;24.00;49.00;;;;;;5092154;28;20021;-47
2021/05/11 12:51:57;;;;;;;1.83;1.70;;;24.00;49.00;;;;;;5093783;28;20551;-44
2021/05/11 12:54:31;;;;;;;2.78;1.45;;;24.00;48.90;;;;;;5096629;28;20039;-45
2021/05/11 13:02:17;;;;;;;1.60;1.50;;;23.70;49.70;;;;;;5088938;28;20469;-43
2021/05/11 13:15:59;;;;;;;2.67;1.23;;;23.70;50.00;;;;;;5090325;28;20035;-43
2021/05/11 13:21:32;;;;;;;1.80;1.70;;;23.60;50.20;;;;;;5089086;28;20035;-43
2021/05/11 13:26:50;;;;;;;1.70;1.60;;;23.70;50.10;;;;;;5088471;28;20091;-43
2021/05/11 13:29:36;;;;;;;1.80;1.70;;;23.50;50.60;;;;;;5091320;28;20478;-48
2021/05/11 13:32:05;;;;;;;1.50;1.40;;;23.50;50.90;;;;;;5090974;28;20036;-45
2021/05/11 13:34:34;;;;;;;1.50;1.40;;;23.40;51.10;;;;;;5089334;28;20028;-43
2021/05/11 13:36:59;;;;;;;1.88;1.73;;;23.30;51.20;;;;;;5090926;28;20745;-47
2021/05/11 13:39:25;;;;;;;1.55;1.45;;;23.30;52.00;;;;;;5091682;28;20040;-43
2021/05/11 13:41:51;;;;;;;1.30;1.20;;;23.40;51.10;;;;;;5095276;28;20316;-43
2021/05/11 13:44:16;;;;;;;1.60;1.50;;;23.50;50.80;;;;;;5088140;28;20035;-45
2021/05/11 13:46:42;;;;;;;1.45;1.33;;;23.60;50.50;;;;;;5092404;28;20028;-44
2021/05/11 13:49:07;;;;;;;1.63;1.30;;;23.70;50.20;;;;;;5091466;28;20469;-41
2021/05/11 13:51:33;;;;;;;2.33;1.27;;;23.80;50.20;;;;;;5072981;28;20066;-42
2021/05/11 13:54:03;;;;;;;1.45;1.30;;;23.60;50.60;;;;;;5070158;28;20446;-49
2021/05/11 14:04:36;;;;;;;1.40;1.30;;;23.80;50.00;;;;;;5027143;28;19912;-42
2021/05/11 14:07:02;;;;;;;1.33;1.23;;;23.90;50.10;;;;;;5030169;28;20496;-40
2021/05/11 14:09:28;;;;;;;1.35;1.23;;;23.80;50.70;;;;;;5030022;28;20053;-43
2021/05/11 14:11:53;;;;;;;1.55;0.95;;;23.70;51.50;;;;;;4678997;28;10000957;-43
2021/05/11 14:14:19;;;;;;;1.38;1.23;;;23.80;50.80;;;;;;5029763;28;20025;-44
2021/05/11 14:16:45;;;;;;;1.40;1.30;;;23.70;51.70;;;;;;4667556;28;9999921;-43
2021/05/11 14:19:11;;;;;;;1.40;1.30;;;23.60;51.80;;;;;;4685444;28;9999726;-43
2021/05/11 14:21:37;;;;;;;1.23;1.13;;;23.60;51.60;;;;;;5027460;28;20044;-43
2021/05/11 14:24:03;;;;;;;5.22;1.20;;;23.60;52.10;;;;;;5031537;28;20034;-43
2021/05/11 14:26:29;;;;;;;1.70;0.90;;;23.50;51.90;;;;;;5033670;28;20429;-45
2021/05/11 14:28:56;;;;;;;1.20;1.10;;;23.40;52.70;;;;;;5028743;28;20725;-44
2021/05/11 14:31:22;;;;;;;0.98;0.80;;;23.30;53.10;;;;;;5010608;28;20048;-47
2021/05/11 14:33:48;;;;;;;1.52;1.05;;;23.30;53.20;;;;;;5034196;28;20045;-45
2021/05/11 14:36:14;;;;;;;1.50;1.20;;;23.30;53.30;;;;;;5033083;28;20064;-45
2021/05/11 14:38:39;;;;;;;1.15;1.08;;;23.20;53.30;;;;;;5027460;28;20642;-45
2021/05/11 14:41:06;;;;;;;1.17;1.02;;;23.20;53.80;;;;;;5063508;28;20043;-46
2021/05/11 14:43:32;;;;;;;0.80;0.80;;;23.30;53.10;;;;;;5105275;28;20486;-46
2021/05/11 14:46:02;;;;;;;1.75;1.00;;;23.20;53.10;;;;;;5097947;28;20033;-44
2021/05/11 14:48:29;;;;;;;1.30;1.20;;;23.30;53.10;;;;;;5075471;28;20107;-47
2021/05/11 14:50:55;;;;;;;2.10;0.90;;;23.30;52.70;;;;;;5097595;28;20573;-50
2021/05/11 14:53:20;;;;;;;1.30;0.80;;;23.40;52.50;;;;;;5104554;28;20110;-45
2021/05/11 14:55:46;;;;;;;1.75;0.90;;;23.50;52.70;;;;;;5100785;28;20871;-44
2021/05/11 14:58:11;;;;;;;1.17;1.02;;;23.50;52.90;;;;;;5094952;28;20018;-46
2021/05/11 15:00:37;;;;;;;0.85;0.80;;;23.50;52.70;;;;;;5094548;28;20110;-47
2021/05/11 15:03:03;;;;;;;1.15;1.05;;;23.60;52.20;;;;;;5092951;28;20397;-50
2021/05/11 15:05:29;;;;;;;1.55;1.00;;;23.50;52.20;;;;;;5093685;28;20421;-45
2021/05/11 15:07:54;;;;;;;1.02;0.93;;;23.50;52.40;;;;;;5103970;28;20085;-46
2021/05/11 15:10:20;;;;;;;1.05;1.00;;;23.50;52.40;;;;;;5096108;28;21063;-46
2021/05/11 15:12:47;;;;;;;1.40;1.00;;;23.50;52.40;;;;;;5096885;28;20035;-43
2021/05/11 15:15:19;;;;;;;0.90;0.80;;;23.50;52.80;;;;;;5077182;28;20028;-46
2021/05/11 15:20:12;;;;;;;3.05;1.00;;;23.60;52.00;;;;;;5101769;28;20035;-46
2021/05/11 15:22:37;;;;;;;1.10;0.80;;;23.60;52.20;;;;;;5102085;28;20067;-44
2021/05/11 15:25:04;;;;;;;2.05;0.90;;;23.60;51.80;;;;;;5101966;28;20052;-45
2021/05/11 15:27:30;;;;;;;1.20;1.10;;;23.70;51.50;;;;;;5091325;28;20089;-44
2021/05/11 15:29:55;;;;;;;1.25;1.00;;;23.80;51.20;;;;;;5065650;28;20980;-45
2021/05/11 15:32:55;;;;;;;1.30;1.20;;;23.80;52.00;;;;;;5075333;28;20398;-45
2021/05/11 15:35:48;;;;;;;1.98;1.20;;;23.70;51.20;;;;;;5083940;28;20445;-45
2021/05/11 15:38:13;;;;;;;4.20;1.10;;;23.70;51.00;;;;;;5102218;28;20043;-43
2021/05/11 15:40:41;;;;;;;2.60;1.35;;;23.60;51.10;;;;;;5099944;28;20034;-50
2021/05/11 15:43:07;;;;;;;1.45;0.98;;;23.60;51.30;;;;;;5101443;28;20070;-44
2021/05/11 15:45:33;;;;;;;2.10;1.20;;;23.60;50.90;;;;;;5103936;28;20581;-44
2021/05/11 15:48:03;;;;;;;2.95;1.17;;;23.50;51.10;;;;;;5092398;28;20020;-43
2021/05/11 15:50:30;;;;;;;2.03;1.25;;;23.50;51.30;;;;;;5093552;28;20064;-44
2021/05/11 15:53:00;;;;;;;1.10;1.00;;;23.60;51.40;;;;;;5085903;28;20082;-40
2021/05/11 15:55:26;;;;;;;1.40;1.17;;;23.70;51.00;;;;;;5098653;28;20031;-40
2021/05/11 15:57:51;;;;;;;1.90;1.10;;;23.70;50.90;;;;;;5101178;28;20628;-45
2021/05/11 16:00:17;;;;;;;1.40;0.90;;;23.70;50.60;;;;;;5092938;28;20035;-47
2021/05/11 16:02:43;;;;;;;1.60;1.13;;;23.70;50.80;;;;;;5094893;28;20023;-43
2021/05/11 16:05:09;;;;;;;0.93;0.85;;;23.70;50.80;;;;;;5090916;28;20025;-46
2021/05/11 16:07:35;;;;;;;1.92;1.15;;;23.80;49.90;;;;;;5085111;28;20065;-46
2021/05/11 16:10:08;;;;;;;1.88;1.50;;;23.80;50.40;;;;;;5099510;28;20065;-42
2021/05/11 16:12:33;;;;;;;2.65;1.50;;;23.80;49.30;;;;;;5097842;28;20030;-44
2021/05/11 16:15:07;;;;;;;3.10;1.60;;;23.80;48.70;;;;;;5094871;28;20468;-43
2021/05/11 16:17:32;;;;;;;2.67;1.80;;;23.70;48.40;;;;;;5098047;28;20127;-50
2021/05/11 16:19:58;;;;;;;3.15;1.80;;;23.80;47.90;;;;;;5098875;28;20445;-47
2021/05/11 16:22:23;;;;;;;2.95;1.60;;;23.60;46.40;;;;;;5094546;28;20036;-43
2021/05/11 16:24:49;;;;;;;3.33;1.70;;;23.50;46.60;;;;;;5081858;28;20122;-44
2021/05/11 16:27:14;;;;;;;2.92;1.70;;;23.50;45.90;;;;;;5103228;28;20024;-44
2021/05/11 16:29:40;;;;;;;2.50;1.63;;;23.50;47.20;;;;;;5091282;28;20123;-44
2021/05/11 16:32:07;;;;;;;4.30;1.60;;;23.50;46.70;;;;;;5089130;28;20035;-44
2021/05/11 16:34:33;;;;;;;2.70;1.67;;;23.50;48.10;;;;;;5088685;28;20023;-43
2021/05/11 16:37:02;;;;;;;3.08;1.60;;;23.60;47.90;;;;;;5101398;28;20032;-35
2021/05/11 16:39:28;;;;;;;1.70;1.20;;;23.50;48.10;;;;;;5099856;28;20055;-43
2021/05/11 16:41:55;;;;;;;1.65;1.20;;;23.70;48.40;;;;;;5094331;28;20063;-43
2021/05/11 16:44:20;;;;;;;2.75;1.50;;;23.70;48.00;;;;;;5093986;28;20052;-44
2021/05/11 16:46:46;;;;;;;1.58;1.10;;;23.60;48.70;;;;;;5095242;28;20078;-43
2021/05/11 16:49:12;;;;;;;3.40;1.50;;;23.70;48.50;;;;;;5095557;28;20098;-44
2021/05/11 16:51:37;;;;;;;3.25;1.80;;;23.80;48.40;;;;;;5093462;28;20066;-43
2021/05/11 16:54:03;;;;;;;3.10;1.25;;;23.90;48.30;;;;;;5092994;28;20461;-44
2021/05/11 16:56:29;;;;;;;3.28;1.50;;;23.90;48.20;;;;;;5075383;28;20081;-44
2021/05/11 16:58:54;;;;;;;2.55;1.30;;;23.90;48.30;;;;;;5103648;28;20061;-41
2021/05/11 17:01:20;;;;;;;5.43;1.63;;;23.90;48.30;;;;;;5101301;28;20021;-41
2021/05/11 17:03:46;;;;;;;2.30;1.48;;;24.00;48.10;;;;;;5102838;28;20031;-41